createdAt,value
2018-09-22T00:01:07.194Z,2.63
2018-09-22T00:03:35.412Z,2.80
2018-09-22T00:06:03.594Z,2.93
2018-09-22T00:08:31.845Z,3.27
2018-09-22T00:11:00.062Z,3.50
2018-09-22T00:13:28.245Z,2.20
2018-09-22T00:15:56.458Z,2.43
2018-09-22T00:18:24.640Z,2.83
2018-09-22T00:20:52.914Z,3.60
2018-09-22T00:23:21.124Z,2.83
2018-09-22T00:25:49.330Z,3.13
2018-09-22T00:28:17.557Z,2.77
2018-09-22T00:30:45.769Z,3.00
2018-09-22T00:33:13.965Z,3.60
2018-09-22T00:35:42.189Z,2.67
2018-09-22T00:38:10.401Z,3.13
2018-09-22T00:40:38.713Z,2.70
2018-09-22T00:43:07.217Z,3.20
2018-09-22T00:45:35.418Z,2.87
2018-09-22T00:48:03.618Z,3.83
2018-09-22T00:50:31.819Z,3.20
2018-09-22T00:53:00.060Z,3.10
2018-09-22T00:55:28.299Z,2.70
2018-09-22T00:57:56.525Z,3.40
2018-09-22T01:00:24.925Z,3.27
2018-09-22T01:02:53.171Z,3.20
2018-09-22T01:05:21.374Z,2.77
2018-09-22T01:07:49.573Z,2.10
2018-09-22T01:10:17.825Z,2.83
2018-09-22T01:12:46.006Z,2.93
2018-09-22T01:15:14.316Z,2.53
2018-09-22T01:17:42.660Z,2.50
2018-09-22T01:20:10.845Z,3.00
2018-09-22T01:22:39.049Z,2.57
2018-09-22T01:25:07.469Z,3.07
2018-09-22T01:27:35.759Z,3.03
2018-09-22T01:30:04.001Z,2.83
2018-09-22T01:32:32.217Z,1.93
2018-09-22T01:35:00.414Z,1.90
2018-09-22T01:37:28.613Z,3.60
2018-09-22T01:39:56.815Z,2.50
2018-09-22T01:42:25.009Z,3.03
2018-09-22T01:44:53.220Z,2.70
2018-09-22T01:47:21.461Z,3.93
2018-09-22T01:49:49.963Z,2.70
2018-09-22T01:52:18.198Z,2.60
2018-09-22T01:54:46.390Z,2.80
2018-09-22T01:57:14.670Z,2.37
2018-09-22T01:59:42.850Z,2.40
2018-09-22T02:02:11.047Z,2.43
2018-09-22T02:04:39.237Z,2.20
2018-09-22T02:07:07.437Z,2.47
2018-09-22T02:09:35.672Z,2.50
2018-09-22T02:12:03.862Z,2.07
2018-09-22T02:14:32.170Z,2.30
2018-09-22T02:17:00.377Z,2.00
2018-09-22T02:19:28.561Z,3.10
2018-09-22T02:21:56.815Z,2.67
2018-09-22T02:24:25.001Z,2.47
2018-09-22T02:26:53.209Z,2.63
2018-09-22T02:29:21.429Z,2.40
2018-09-22T02:31:49.834Z,2.53
2018-09-22T02:34:18.313Z,2.43
2018-09-22T02:36:46.565Z,2.30
2018-09-22T02:39:14.816Z,2.03
2018-09-22T02:41:43.049Z,2.60
2018-09-22T02:44:11.294Z,2.80
2018-09-22T02:46:39.537Z,1.90
2018-09-22T02:49:07.745Z,2.70
2018-09-22T02:51:35.947Z,3.00
2018-09-22T02:54:04.150Z,2.77
2018-09-22T02:56:32.525Z,2.67
2018-09-22T02:59:00.860Z,2.73
2018-09-22T03:01:29.049Z,2.50
2018-09-22T03:03:57.244Z,2.10
2018-09-22T03:06:25.483Z,2.00
2018-09-22T03:08:53.747Z,3.00
2018-09-22T03:11:21.885Z,2.40
2018-09-22T03:13:50.131Z,2.00
2018-09-22T03:16:18.325Z,3.57
2018-09-22T03:18:46.669Z,3.13
2018-09-22T03:21:14.944Z,2.27
2018-09-22T03:23:43.269Z,2.50
2018-09-22T03:26:11.505Z,2.47
2018-09-22T03:28:39.715Z,2.60
2018-09-22T03:31:08.432Z,2.50
2018-09-22T03:33:36.634Z,2.00
2018-09-22T03:36:04.861Z,1.97
2018-09-22T03:38:33.087Z,2.73
2018-09-22T03:41:01.277Z,2.33
2018-09-22T03:43:29.523Z,2.33
2018-09-22T03:47:26.941Z,2.70
2018-09-22T03:49:55.181Z,3.00
2018-09-22T03:52:23.401Z,2.67
2018-09-22T03:54:51.653Z,2.60
2018-09-22T03:57:19.855Z,2.67
2018-09-22T03:59:48.293Z,3.23
2018-09-22T04:02:16.533Z,2.90
2018-09-22T04:04:44.761Z,3.20
2018-09-22T04:07:13.017Z,2.73
2018-09-22T04:09:41.299Z,3.00
2018-09-22T04:12:09.515Z,3.13
2018-09-22T04:14:37.711Z,2.97
2018-09-22T04:17:06.021Z,3.23
2018-09-22T04:19:34.229Z,3.03
2018-09-22T04:22:02.789Z,2.87
2018-09-22T04:24:31.009Z,3.23
2018-09-22T04:26:59.229Z,2.90
2018-09-22T04:29:27.434Z,2.90
2018-09-22T04:31:55.666Z,3.07
2018-09-22T04:34:24.078Z,2.30
2018-09-22T04:36:52.301Z,2.53
2018-09-22T04:39:20.505Z,2.80
2018-09-22T04:41:48.725Z,2.87
2018-09-22T04:44:16.943Z,3.00
2018-09-22T04:46:45.155Z,3.43
2018-09-22T04:49:13.357Z,3.10
2018-09-22T04:51:41.545Z,3.13
2018-09-22T04:54:09.758Z,3.60
2018-09-22T04:56:37.949Z,2.60
2018-09-22T04:59:06.157Z,3.30
2018-09-22T05:01:34.366Z,2.60
2018-09-22T05:04:02.565Z,3.23
2018-09-22T05:06:30.818Z,3.80
2018-09-22T05:08:59.029Z,2.70
2018-09-22T05:11:27.289Z,2.60
2018-09-22T05:13:55.473Z,3.07
2018-09-22T05:16:23.735Z,3.33
2018-09-22T05:18:51.929Z,2.77
2018-09-22T05:21:20.169Z,2.80
2018-09-22T05:23:48.353Z,2.93
2018-09-22T05:26:16.544Z,2.90
2018-09-22T05:28:45.022Z,2.40
2018-09-22T05:31:13.209Z,3.40
2018-09-22T05:33:41.443Z,2.80
2018-09-22T05:36:09.633Z,3.23
2018-09-22T05:38:37.825Z,3.10
2018-09-22T05:41:06.101Z,4.80
2018-09-22T05:43:34.333Z,3.30
2018-09-22T05:46:02.554Z,2.73
2018-09-22T05:48:30.777Z,3.60
2018-09-22T05:50:59.205Z,2.93
2018-09-22T05:53:27.421Z,3.77
2018-09-22T05:55:55.659Z,2.83
2018-09-22T05:58:23.955Z,2.83
2018-09-22T06:00:52.154Z,2.70
2018-09-22T06:03:20.380Z,2.80
2018-09-22T06:05:48.580Z,2.73
2018-09-22T06:08:16.785Z,3.30
2018-09-22T06:10:45.009Z,2.60
2018-09-22T06:13:13.228Z,3.00
2018-09-22T06:15:41.432Z,3.13
2018-09-22T06:18:09.709Z,3.17
2018-09-22T06:20:37.982Z,3.43
2018-09-22T06:23:06.232Z,2.47
2018-09-22T06:25:34.439Z,2.80
2018-09-22T06:28:02.632Z,2.80
2018-09-22T06:30:30.834Z,2.90
2018-09-22T06:32:59.060Z,2.63
2018-09-22T06:35:27.561Z,2.00
2018-09-22T06:37:55.765Z,2.80
2018-09-22T06:40:23.945Z,3.33
2018-09-22T06:42:52.163Z,3.00
2018-09-22T06:45:20.369Z,2.50
2018-09-22T06:47:48.558Z,3.10
2018-09-22T06:50:16.885Z,2.50
2018-09-22T06:52:45.034Z,2.90
2018-09-22T06:55:13.264Z,2.10
2018-09-22T06:57:41.740Z,3.17
2018-09-22T07:00:09.933Z,2.70
2018-09-22T07:02:38.142Z,2.03
2018-09-22T07:05:06.357Z,3.80
2018-09-22T07:07:34.570Z,2.60
2018-09-22T07:10:02.797Z,2.83
2018-09-22T07:12:31.041Z,2.50
2018-09-22T07:14:59.268Z,3.27
2018-09-22T07:17:27.828Z,2.10
2018-09-22T07:19:56.074Z,2.60
2018-09-22T07:22:29.557Z,2.20
2018-09-22T07:24:57.805Z,2.80
2018-09-22T07:27:26.061Z,2.33
2018-09-22T07:29:54.371Z,2.43
2018-09-22T07:32:22.546Z,2.70
2018-09-22T07:34:50.793Z,2.33
2018-09-22T07:37:19.046Z,2.73
2018-09-22T07:39:47.267Z,3.23
2018-09-22T07:42:15.839Z,2.50
2018-09-22T07:44:44.476Z,2.30
2018-09-22T07:47:12.873Z,3.23
2018-09-22T07:49:41.221Z,1.90
2018-09-22T07:52:09.739Z,2.63
2018-09-22T07:54:37.953Z,2.20
2018-09-22T07:57:06.248Z,2.27
2018-09-22T07:59:34.569Z,2.40
2018-09-22T08:02:02.828Z,2.00
2018-09-22T08:04:31.109Z,2.00
2018-09-22T08:06:59.301Z,1.77
2018-09-22T08:09:27.645Z,2.77
2018-09-22T08:11:55.888Z,2.30
2018-09-22T08:14:24.166Z,1.80
2018-09-22T08:16:52.470Z,1.97
2018-09-22T08:19:20.987Z,1.40
2018-09-22T08:21:49.200Z,2.33
2018-09-22T08:24:17.441Z,1.33
2018-09-22T08:26:45.815Z,2.47
2018-09-22T08:29:14.017Z,1.83
2018-09-22T08:31:42.233Z,2.33
2018-09-22T08:34:10.436Z,1.70
2018-09-22T08:36:38.768Z,2.43
2018-09-22T08:39:08.477Z,1.70
2018-09-22T08:41:36.716Z,2.60
2018-09-22T08:44:04.953Z,2.80
2018-09-22T08:46:33.356Z,2.77
2018-09-22T08:49:01.565Z,1.93
2018-09-22T08:51:29.814Z,2.70
2018-09-22T08:53:58.029Z,2.20
2018-09-22T08:56:26.247Z,1.53
2018-09-22T08:58:54.539Z,2.20
2018-09-22T09:01:22.811Z,2.43
2018-09-22T09:03:50.991Z,1.40
2018-09-22T09:06:19.227Z,2.20
2018-09-22T09:08:47.800Z,1.97
2018-09-22T09:11:16.078Z,2.13
2018-09-22T09:13:44.456Z,2.00
2018-09-22T09:16:12.625Z,2.10
2018-09-22T09:18:41.057Z,1.87
2018-09-22T09:21:09.534Z,2.60
2018-09-22T09:23:37.848Z,1.50
2018-09-22T09:26:06.473Z,1.70
2018-09-22T09:28:34.874Z,2.00
2018-09-22T09:31:03.409Z,1.90
2018-09-22T09:33:31.640Z,2.90
2018-09-22T09:35:59.872Z,1.90
2018-09-22T09:38:28.264Z,2.40
2018-09-22T09:40:56.518Z,2.33
2018-09-22T09:43:24.774Z,1.87
2018-09-22T09:45:52.953Z,1.93
2018-09-22T09:48:21.394Z,2.70
2018-09-22T09:50:49.681Z,1.63
2018-09-22T09:53:18.416Z,2.17
2018-09-22T09:55:46.697Z,2.20
2018-09-22T09:58:14.937Z,1.33
2018-09-22T10:00:44.078Z,2.00
2018-09-22T10:03:13.099Z,2.60
2018-09-22T10:05:41.341Z,2.00
2018-09-22T10:08:09.627Z,2.10
2018-09-22T10:10:38.033Z,2.50
2018-09-22T10:13:06.659Z,1.93
2018-09-22T10:15:35.165Z,2.83
2018-09-22T10:18:03.389Z,2.00
2018-09-22T10:20:31.905Z,2.00
2018-09-22T10:22:59.873Z,1.90
2018-09-22T10:25:28.304Z,2.23
2018-09-22T10:27:56.598Z,1.90
2018-09-22T10:30:24.776Z,2.03
2018-09-22T10:32:53.053Z,2.00
2018-09-22T10:35:21.310Z,1.70
2018-09-22T10:37:49.609Z,2.37
2018-09-22T10:40:17.854Z,1.97
2018-09-22T10:42:46.136Z,1.73
2018-09-22T10:45:14.349Z,2.40
2018-09-22T10:47:42.641Z,2.23
2018-09-22T10:50:11.121Z,1.80
2018-09-22T10:52:39.530Z,2.60
2018-09-22T10:55:07.758Z,2.33
2018-09-22T10:57:35.967Z,1.93
2018-09-22T11:00:04.217Z,2.07
2018-09-22T11:02:32.497Z,1.80
2018-09-22T11:05:00.741Z,2.03
2018-09-22T11:07:29.673Z,2.03
2018-09-22T11:09:58.076Z,1.73
2018-09-22T11:12:26.325Z,1.60
2018-09-22T11:14:54.610Z,2.20
2018-09-22T11:17:22.950Z,2.27
2018-09-22T11:19:51.192Z,1.80
2018-09-22T11:22:19.973Z,2.63
2018-09-22T11:24:48.475Z,1.80
2018-09-22T11:27:16.672Z,1.67
2018-09-22T11:29:44.865Z,2.20
2018-09-22T11:32:13.110Z,1.80
2018-09-22T11:34:41.339Z,2.30
2018-09-22T11:37:09.604Z,3.20
2018-09-22T11:39:37.853Z,2.33
2018-09-22T11:42:06.209Z,3.03
2018-09-22T11:44:34.601Z,2.17
2018-09-22T11:47:02.841Z,3.20
2018-09-22T11:49:31.068Z,2.00
2018-09-22T11:51:59.334Z,1.90
2018-09-22T11:54:27.583Z,1.90
2018-09-22T11:56:55.819Z,1.70
2018-09-22T11:59:24.081Z,1.40
2018-09-22T12:01:52.367Z,1.80
2018-09-22T12:04:20.531Z,1.87
2018-09-22T12:06:49.626Z,2.17
2018-09-22T12:09:17.789Z,1.77
2018-09-22T12:11:45.973Z,3.23
2018-09-22T12:14:14.430Z,2.27
2018-09-22T12:16:42.681Z,1.80
2018-09-22T12:19:10.918Z,1.60
2018-09-22T12:21:39.158Z,1.80
2018-09-22T12:24:07.366Z,2.27
2018-09-22T12:26:35.645Z,1.87
2018-09-22T12:29:03.908Z,2.00
2018-09-22T12:31:32.140Z,1.77
2018-09-22T12:34:00.619Z,2.20
2018-09-22T12:36:28.820Z,2.13
2018-09-22T12:38:57.105Z,2.97
2018-09-22T12:41:25.313Z,2.50
2018-09-22T12:43:53.547Z,2.20
2018-09-22T12:46:21.769Z,3.83
2018-09-22T12:48:49.973Z,2.23
2018-09-22T12:51:18.404Z,2.83
2018-09-22T12:53:46.641Z,1.83
2018-09-22T12:56:14.837Z,2.30
2018-09-22T12:58:43.064Z,2.03
2018-09-22T13:01:11.273Z,1.57
2018-09-22T13:03:39.580Z,2.10
2018-09-22T13:06:07.744Z,2.03
2018-09-22T13:08:36.261Z,1.73
2018-09-22T13:11:04.506Z,2.27
2018-09-22T13:13:32.865Z,2.73
2018-09-22T13:16:01.041Z,2.20
2018-09-22T13:18:29.475Z,1.87
2018-09-22T13:20:57.696Z,1.57
2018-09-22T13:23:25.958Z,1.73
2018-09-22T13:25:54.436Z,1.83
2018-09-22T13:28:22.621Z,1.90
2018-09-22T13:30:50.798Z,1.53
2018-09-22T13:33:19.051Z,1.73
2018-09-22T13:35:47.265Z,1.20
2018-09-22T13:38:15.541Z,1.57
2018-09-22T13:40:43.785Z,1.57
2018-09-22T13:43:11.977Z,1.60
2018-09-22T13:45:40.337Z,1.83
2018-09-22T13:48:08.545Z,2.67
2018-09-22T13:50:36.809Z,4.53
2018-09-22T13:53:05.360Z,2.10
2018-09-22T13:55:33.702Z,2.10
2018-09-22T13:58:02.177Z,2.00
2018-09-22T14:00:30.382Z,1.90
2018-09-22T14:02:58.613Z,1.70
2018-09-22T14:05:26.838Z,2.20
2018-09-22T14:07:55.101Z,2.00
2018-09-22T14:10:23.815Z,2.47
2018-09-22T14:12:51.967Z,1.90
2018-09-22T14:15:20.266Z,1.77
2018-09-22T14:17:48.645Z,1.67
2018-09-22T14:20:17.219Z,1.80
2018-09-22T14:22:45.433Z,2.03
2018-09-22T14:25:13.689Z,2.07
2018-09-22T14:27:41.982Z,1.90
2018-09-22T14:30:10.253Z,2.30
2018-09-22T14:39:22.720Z,1.60
2018-09-22T14:41:51.281Z,1.60
2018-09-22T14:44:19.566Z,1.50
2018-09-22T14:46:47.830Z,1.60
2018-09-22T14:49:16.175Z,1.23
2018-09-22T14:51:44.385Z,1.60
2018-09-22T14:54:12.669Z,2.17
2018-09-22T14:56:40.937Z,1.53
2018-09-22T14:59:09.118Z,2.17
2018-09-22T15:01:37.573Z,2.67
2018-09-22T15:04:06.154Z,2.00
2018-09-22T15:06:34.641Z,1.30
2018-09-22T15:09:03.011Z,3.00
2018-09-22T15:11:31.221Z,2.20
2018-09-22T15:13:59.663Z,1.60
2018-09-22T15:16:27.873Z,2.20
2018-09-22T15:18:56.219Z,2.70
2018-09-22T15:21:24.421Z,2.30
2018-09-22T15:23:52.702Z,1.70
2018-09-22T15:26:21.101Z,2.33
2018-09-22T15:28:49.637Z,2.70
2018-09-22T15:31:17.850Z,2.87
2018-09-22T15:33:46.186Z,1.87
2018-09-22T15:36:14.469Z,2.50
2018-09-22T15:38:42.698Z,3.47
2018-09-22T15:41:10.937Z,2.43
2018-09-22T15:43:39.129Z,2.80
2018-09-22T15:46:07.362Z,2.40
2018-09-22T15:48:35.764Z,2.10
2018-09-22T15:51:03.957Z,3.83
2018-09-22T15:53:32.193Z,3.27
2018-09-22T15:56:00.879Z,2.50
2018-09-22T15:58:30.049Z,2.33
2018-09-22T16:00:58.483Z,2.37
2018-09-22T16:03:26.686Z,3.10
2018-09-22T16:05:54.924Z,4.47
2018-09-22T16:08:23.181Z,5.03
2018-09-22T16:10:51.443Z,3.47
2018-09-22T16:13:19.773Z,3.63
2018-09-22T16:15:48.182Z,3.60
2018-09-22T16:18:16.648Z,2.63
2018-09-22T16:20:44.950Z,2.93
2018-09-22T16:23:13.239Z,2.17
2018-09-22T16:25:41.443Z,2.97
2018-09-22T16:28:09.682Z,2.60
2018-09-22T16:30:37.889Z,2.10
2018-09-22T16:33:06.473Z,2.20
2018-09-22T16:35:34.663Z,2.30
2018-09-22T16:38:02.907Z,2.27
2018-09-22T16:40:31.097Z,2.73
2018-09-22T16:42:59.353Z,3.23
2018-09-22T16:45:27.578Z,3.47
2018-09-22T16:47:55.884Z,3.33
2018-09-22T16:50:24.181Z,3.40
2018-09-22T16:52:52.456Z,3.20
2018-09-22T16:55:20.956Z,3.20
2018-09-22T16:57:49.282Z,3.10
2018-09-22T17:00:17.511Z,3.13
2018-09-22T17:02:45.724Z,3.03
2018-09-22T17:05:14.043Z,3.43
2018-09-22T17:07:42.229Z,3.33
2018-09-22T17:10:10.703Z,2.17
2018-09-22T17:12:39.179Z,2.43
2018-09-22T17:15:07.409Z,3.30
2018-09-22T17:17:35.629Z,2.10
2018-09-22T17:20:03.931Z,2.20
2018-09-22T17:22:32.141Z,2.13
2018-09-22T17:25:00.365Z,2.80
2018-09-22T17:27:28.741Z,2.33
2018-09-22T17:29:56.918Z,3.00
2018-09-22T17:32:25.193Z,2.80
2018-09-22T17:34:53.393Z,2.70
2018-09-22T17:37:21.682Z,2.20
2018-09-22T17:39:50.225Z,2.50
2018-09-22T17:42:18.702Z,2.30
2018-09-22T17:44:46.989Z,2.67
2018-09-22T17:47:15.187Z,3.20
2018-09-22T17:49:43.409Z,2.83
2018-09-22T17:52:11.816Z,2.43
2018-09-22T17:54:40.029Z,2.23
2018-09-22T17:57:08.389Z,2.70
2018-09-22T17:59:36.679Z,2.80
2018-09-22T18:02:04.952Z,2.70
2018-09-22T18:04:33.193Z,2.70
2018-09-22T18:07:01.398Z,2.80
2018-09-22T18:09:29.641Z,3.80
2018-09-22T18:11:57.844Z,2.90
2018-09-22T18:14:26.089Z,2.60
2018-09-22T18:16:54.321Z,3.50
2018-09-22T18:19:22.498Z,2.93
2018-09-22T18:21:51.019Z,2.60
2018-09-22T18:24:19.416Z,3.80
2018-09-22T18:26:47.656Z,2.77
2018-09-22T18:29:16.034Z,3.30
2018-09-22T18:31:44.226Z,4.47
2018-09-22T18:34:12.479Z,5.00
2018-09-22T18:36:40.720Z,4.60
2018-09-22T18:39:09.513Z,3.83
2018-09-22T18:41:37.919Z,4.70
2018-09-22T18:44:06.227Z,5.30
2018-09-22T18:46:34.831Z,3.77
2018-09-22T18:49:03.320Z,5.30
2018-09-22T18:51:31.651Z,4.20
2018-09-22T18:53:59.988Z,4.13
2018-09-22T18:56:28.400Z,3.80
2018-09-22T18:58:56.812Z,3.67
2018-09-22T19:01:25.308Z,3.23
2018-09-22T19:03:53.798Z,3.63
2018-09-22T19:06:22.330Z,2.70
2018-09-22T19:08:51.117Z,3.20
2018-09-22T19:11:19.605Z,3.73
2018-09-22T19:13:53.147Z,3.60
2018-09-22T19:16:29.185Z,4.33
2018-09-22T19:19:02.312Z,4.40
2018-09-22T19:21:34.518Z,3.90
2018-09-22T19:24:06.277Z,3.13
2018-09-22T19:26:38.292Z,3.80
2018-09-22T19:29:42.131Z,3.20
2018-09-22T19:32:14.217Z,3.93
2018-09-22T19:34:47.072Z,3.70
2018-09-22T19:39:22.544Z,3.93
2018-09-22T19:41:56.682Z,5.00
2018-09-22T19:45:34.010Z,4.57
2018-09-22T19:48:07.801Z,4.63
2018-09-22T19:50:42.108Z,4.07
2018-09-22T19:53:10.620Z,4.47
2018-09-22T19:55:39.023Z,3.90
2018-09-22T19:58:07.509Z,4.70
2018-09-22T20:00:35.858Z,3.83
2018-09-22T20:03:04.133Z,4.10
2018-09-22T20:05:32.510Z,3.60
2018-09-22T20:08:00.761Z,3.40
2018-09-22T20:10:29.047Z,3.17
2018-09-22T20:12:57.313Z,3.30
2018-09-22T20:15:25.560Z,3.60
2018-09-22T20:17:53.770Z,3.87
2018-09-22T20:20:21.982Z,4.87
2018-09-22T20:22:50.222Z,3.90
2018-09-22T20:25:18.488Z,3.67
2018-09-22T20:27:46.736Z,3.80
2018-09-22T20:30:15.044Z,3.10
2018-09-22T20:32:43.255Z,3.43
2018-09-22T20:35:12.480Z,3.20
2018-09-22T20:37:40.688Z,3.10
2018-09-22T20:40:09.170Z,3.00
2018-09-22T20:42:37.357Z,3.30
2018-09-22T20:45:05.881Z,4.33
2018-09-22T20:47:34.155Z,3.33
2018-09-22T20:50:02.855Z,3.63
2018-09-22T20:52:31.069Z,4.27
2018-09-22T20:54:59.750Z,4.67
2018-09-22T20:57:28.036Z,3.80
2018-09-22T20:59:56.266Z,3.70
2018-09-22T21:02:24.497Z,4.80
2018-09-22T21:04:52.957Z,3.93
2018-09-22T21:07:21.141Z,3.97
2018-09-22T21:09:49.359Z,3.20
2018-09-22T21:12:17.791Z,4.27
2018-09-22T21:14:46.201Z,3.30
2018-09-22T21:17:14.609Z,2.67
2018-09-22T21:19:42.853Z,4.37
2018-09-22T21:22:11.358Z,6.23
2018-09-22T21:24:39.580Z,3.40
2018-09-22T21:27:07.824Z,4.63
2018-09-22T21:29:36.053Z,3.63
2018-09-22T21:32:04.279Z,3.50
2018-09-22T21:34:32.584Z,3.17
2018-09-22T21:37:00.793Z,8.67
2018-09-22T21:39:29.363Z,4.23
2018-09-22T21:41:57.582Z,4.43
2018-09-22T21:44:25.817Z,3.30
2018-09-22T21:46:54.097Z,3.97
2018-09-22T21:49:22.342Z,3.07
2018-09-22T21:51:50.545Z,3.50
2018-09-22T21:54:18.822Z,3.27
2018-09-22T21:56:47.040Z,3.50
2018-09-22T21:59:15.268Z,3.57
2018-09-22T22:01:43.569Z,4.00
2018-09-22T22:04:12.082Z,3.93
2018-09-22T22:06:40.305Z,3.70
2018-09-22T22:09:10.853Z,3.97
2018-09-22T22:11:39.197Z,4.27
2018-09-22T22:14:07.978Z,3.30
2018-09-22T22:16:36.396Z,4.03
2018-09-22T22:19:04.641Z,3.27
2018-09-22T22:21:33.178Z,3.50
2018-09-22T22:24:01.425Z,4.47
2018-09-22T22:26:29.777Z,4.13
2018-09-22T22:28:58.011Z,4.07
2018-09-22T22:31:26.293Z,3.97
2018-09-22T22:33:54.505Z,4.60
2018-09-22T22:36:22.800Z,3.90
2018-09-22T22:38:51.049Z,5.47
2018-09-22T22:41:19.325Z,4.37
2018-09-22T22:43:47.577Z,4.40
2018-09-22T22:46:15.803Z,5.30
2018-09-22T22:48:44.397Z,9.43
2018-09-22T22:51:12.591Z,5.50
2018-09-22T22:53:40.825Z,4.10
2018-09-22T22:56:09.029Z,4.70
2018-09-22T22:58:37.237Z,4.60
2018-09-22T23:01:06.639Z,4.23
2018-09-22T23:03:34.861Z,5.40
2018-09-22T23:06:03.281Z,3.93
2018-09-22T23:08:31.597Z,4.80
2018-09-22T23:10:59.837Z,4.17
2018-09-22T23:13:28.050Z,4.60
2018-09-22T23:15:56.262Z,4.70
2018-09-22T23:18:24.560Z,3.43
2018-09-22T23:20:52.803Z,3.93
2018-09-22T23:23:20.976Z,3.07
2018-09-22T23:25:49.197Z,2.90
2018-09-22T23:28:17.574Z,2.60
2018-09-22T23:30:46.080Z,2.80
2018-09-22T23:33:14.290Z,2.57
2018-09-22T23:35:42.509Z,3.33
2018-09-22T23:38:10.774Z,2.57
2018-09-22T23:40:39.010Z,2.63
2018-09-22T23:43:07.201Z,3.00
2018-09-22T23:45:35.430Z,2.40
2018-09-22T23:48:03.649Z,2.70
2018-09-22T23:50:31.898Z,2.87
2018-09-22T23:53:00.126Z,3.03
2018-09-22T23:55:28.353Z,2.13
2018-09-22T23:57:56.589Z,2.63
